sensor_id;sensor_type;location;lat;lon;timestamp;P1;durP1;ratioP1;P2;durP2;ratioP2
11809;SDS011;5962;41.566;23.734;2024-03-17T00:02:17;11.10;;;9.47;;
11809;SDS011;5962;41.566;23.734;2024-03-17T00:04:44;12.27;;;9.90;;
11809;SDS011;5962;41.566;23.734;2024-03-17T00:07:12;12.37;;;9.83;;
11809;SDS011;5962;41.566;23.734;2024-03-17T00:09:39;12.20;;;10.17;;
11809;SDS011;5962;41.566;23.734;2024-03-17T00:12:06;12.27;;;9.77;;
11809;SDS011;5962;41.566;23.734;2024-03-17T00:14:33;13.80;;;10.23;;
11809;SDS011;5962;41.566;23.734;2024-03-17T00:17:00;11.10;;;9.77;;
11809;SDS011;5962;41.566;23.734;2024-03-17T00:19:27;11.73;;;9.70;;
11809;SDS011;5962;41.566;23.734;2024-03-17T00:21:53;12.17;;;9.57;;
11809;SDS011;5962;41.566;23.734;2024-03-17T00:24:21;10.40;;;9.30;;
11809;SDS011;5962;41.566;23.734;2024-03-17T00:26:47;11.57;;;8.70;;
11809;SDS011;5962;41.566;23.734;2024-03-17T00:29:15;11.27;;;8.63;;
11809;SDS011;5962;41.566;23.734;2024-03-17T00:31:41;12.77;;;9.00;;
11809;SDS011;5962;41.566;23.734;2024-03-17T00:34:08;10.17;;;9.07;;
11809;SDS011;5962;41.566;23.734;2024-03-17T00:36:34;11.23;;;8.57;;
11809;SDS011;5962;41.566;23.734;2024-03-17T00:39:02;10.20;;;8.70;;
11809;SDS011;5962;41.566;23.734;2024-03-17T00:41:30;11.50;;;9.97;;
11809;SDS011;5962;41.566;23.734;2024-03-17T00:43:57;10.47;;;9.23;;
11809;SDS011;5962;41.566;23.734;2024-03-17T00:46:23;9.83;;;8.77;;
11809;SDS011;5962;41.566;23.734;2024-03-17T00:48:50;11.30;;;10.10;;
11809;SDS011;5962;41.566;23.734;2024-03-17T00:51:16;10.33;;;9.23;;
11809;SDS011;5962;41.566;23.734;2024-03-17T00:53:43;11.10;;;9.10;;
11809;SDS011;5962;41.566;23.734;2024-03-17T00:56:09;12.83;;;9.00;;
11809;SDS011;5962;41.566;23.734;2024-03-17T00:58:38;10.77;;;9.67;;
11809;SDS011;5962;41.566;23.734;2024-03-17T01:01:04;10.70;;;9.60;;
11809;SDS011;5962;41.566;23.734;2024-03-17T01:03:31;11.03;;;9.93;;
11809;SDS011;5962;41.566;23.734;2024-03-17T01:05:57;25.57;;;22.97;;
11809;SDS011;5962;41.566;23.734;2024-03-17T01:08:24;27.93;;;24.30;;
11809;SDS011;5962;41.566;23.734;2024-03-17T01:10:50;21.37;;;18.00;;
11809;SDS011;5962;41.566;23.734;2024-03-17T01:13:17;21.40;;;17.70;;
11809;SDS011;5962;41.566;23.734;2024-03-17T01:15:44;16.13;;;14.43;;
11809;SDS011;5962;41.566;23.734;2024-03-17T01:18:11;14.80;;;12.80;;
11809;SDS011;5962;41.566;23.734;2024-03-17T01:20:38;13.53;;;11.13;;
11809;SDS011;5962;41.566;23.734;2024-03-17T01:23:05;14.63;;;12.17;;
11809;SDS011;5962;41.566;23.734;2024-03-17T01:25:32;14.43;;;11.43;;
11809;SDS011;5962;41.566;23.734;2024-03-17T01:28:01;12.27;;;10.97;;
11809;SDS011;5962;41.566;23.734;2024-03-17T01:30:27;12.30;;;10.47;;
11809;SDS011;5962;41.566;23.734;2024-03-17T01:32:56;15.30;;;11.33;;
11809;SDS011;5962;41.566;23.734;2024-03-17T01:35:22;15.03;;;11.83;;
11809;SDS011;5962;41.566;23.734;2024-03-17T01:37:49;17.67;;;12.97;;
11809;SDS011;5962;41.566;23.734;2024-03-17T01:40:15;19.03;;;14.07;;
11809;SDS011;5962;41.566;23.734;2024-03-17T01:42:42;19.20;;;14.30;;
11809;SDS011;5962;41.566;23.734;2024-03-17T01:45:24;15.70;;;13.97;;
11809;SDS011;5962;41.566;23.734;2024-03-17T01:47:55;16.10;;;13.90;;
11809;SDS011;5962;41.566;23.734;2024-03-17T01:50:24;18.97;;;14.60;;
11809;SDS011;5962;41.566;23.734;2024-03-17T01:52:54;15.20;;;12.80;;
11809;SDS011;5962;41.566;23.734;2024-03-17T01:55:25;14.20;;;10.17;;
11809;SDS011;5962;41.566;23.734;2024-03-17T01:57:52;11.67;;;9.87;;
11809;SDS011;5962;41.566;23.734;2024-03-17T02:00:19;11.33;;;10.23;;
11809;SDS011;5962;41.566;23.734;2024-03-17T02:02:46;10.70;;;9.60;;
11809;SDS011;5962;41.566;23.734;2024-03-17T02:05:14;10.80;;;9.70;;
11809;SDS011;5962;41.566;23.734;2024-03-17T02:07:41;13.10;;;9.40;;
11809;SDS011;5962;41.566;23.734;2024-03-17T02:10:07;12.23;;;9.53;;
11809;SDS011;5962;41.566;23.734;2024-03-17T02:12:35;13.53;;;9.23;;
11809;SDS011;5962;41.566;23.734;2024-03-17T02:15:02;10.00;;;8.43;;
11809;SDS011;5962;41.566;23.734;2024-03-17T02:17:30;14.10;;;9.77;;
11809;SDS011;5962;41.566;23.734;2024-03-17T02:19:57;16.50;;;11.07;;
11809;SDS011;5962;41.566;23.734;2024-03-17T02:22:25;20.67;;;12.77;;
11809;SDS011;5962;41.566;23.734;2024-03-17T02:24:53;11.80;;;10.50;;
11809;SDS011;5962;41.566;23.734;2024-03-17T02:27:20;15.03;;;11.33;;
11809;SDS011;5962;41.566;23.734;2024-03-17T02:29:46;13.87;;;11.53;;
11809;SDS011;5962;41.566;23.734;2024-03-17T02:32:13;14.10;;;11.07;;
11809;SDS011;5962;41.566;23.734;2024-03-17T02:34:39;13.13;;;11.03;;
11809;SDS011;5962;41.566;23.734;2024-03-17T02:37:06;15.60;;;11.77;;
11809;SDS011;5962;41.566;23.734;2024-03-17T02:39:34;16.00;;;11.53;;
11809;SDS011;5962;41.566;23.734;2024-03-17T02:42:02;13.07;;;10.10;;
11809;SDS011;5962;41.566;23.734;2024-03-17T02:44:29;10.50;;;8.87;;
11809;SDS011;5962;41.566;23.734;2024-03-17T02:46:57;11.00;;;8.70;;
11809;SDS011;5962;41.566;23.734;2024-03-17T02:49:24;9.40;;;8.43;;
11809;SDS011;5962;41.566;23.734;2024-03-17T02:51:52;12.23;;;9.10;;
11809;SDS011;5962;41.566;23.734;2024-03-17T02:54:19;10.23;;;9.17;;
11809;SDS011;5962;41.566;23.734;2024-03-17T02:56:48;9.53;;;8.50;;
11809;SDS011;5962;41.566;23.734;2024-03-17T02:59:15;10.00;;;9.00;;
11809;SDS011;5962;41.566;23.734;2024-03-17T03:01:42;10.13;;;8.17;;
11809;SDS011;5962;41.566;23.734;2024-03-17T03:04:10;9.40;;;7.80;;
11809;SDS011;5962;41.566;23.734;2024-03-17T03:06:37;11.17;;;8.00;;
11809;SDS011;5962;41.566;23.734;2024-03-17T03:09:04;10.07;;;7.93;;
11809;SDS011;5962;41.566;23.734;2024-03-17T03:11:38;8.37;;;7.40;;
11809;SDS011;5962;41.566;23.734;2024-03-17T03:14:07;8.60;;;7.70;;
11809;SDS011;5962;41.566;23.734;2024-03-17T03:16:34;10.50;;;7.23;;
11809;SDS011;5962;41.566;23.734;2024-03-17T03:19:01;12.33;;;8.60;;
11809;SDS011;5962;41.566;23.734;2024-03-17T03:21:28;9.10;;;8.17;;
11809;SDS011;5962;41.566;23.734;2024-03-17T03:23:55;8.87;;;7.50;;
11809;SDS011;5962;41.566;23.734;2024-03-17T03:26:22;10.43;;;8.47;;
11809;SDS011;5962;41.566;23.734;2024-03-17T03:28:49;10.67;;;7.87;;
11809;SDS011;5962;41.566;23.734;2024-03-17T03:31:18;9.70;;;8.07;;
11809;SDS011;5962;41.566;23.734;2024-03-17T03:33:45;15.17;;;10.93;;
11809;SDS011;5962;41.566;23.734;2024-03-17T03:36:12;34.07;;;18.10;;
11809;SDS011;5962;41.566;23.734;2024-03-17T03:38:42;19.83;;;12.40;;
11809;SDS011;5962;41.566;23.734;2024-03-17T03:41:09;10.17;;;8.57;;
11809;SDS011;5962;41.566;23.734;2024-03-17T03:43:37;9.67;;;8.67;;
11809;SDS011;5962;41.566;23.734;2024-03-17T03:46:04;11.77;;;8.77;;
11809;SDS011;5962;41.566;23.734;2024-03-17T03:48:32;12.30;;;8.87;;
11809;SDS011;5962;41.566;23.734;2024-03-17T03:51:03;11.10;;;8.33;;
11809;SDS011;5962;41.566;23.734;2024-03-17T03:53:31;9.87;;;8.73;;
11809;SDS011;5962;41.566;23.734;2024-03-17T03:55:58;9.03;;;8.00;;
11809;SDS011;5962;41.566;23.734;2024-03-17T03:58:26;9.13;;;7.90;;
11809;SDS011;5962;41.566;23.734;2024-03-17T04:00:54;8.97;;;7.97;;
11809;SDS011;5962;41.566;23.734;2024-03-17T04:03:21;9.60;;;7.13;;
11809;SDS011;5962;41.566;23.734;2024-03-17T04:05:50;8.00;;;7.20;;
11809;SDS011;5962;41.566;23.734;2024-03-17T04:08:19;7.73;;;6.73;;
11809;SDS011;5962;41.566;23.734;2024-03-17T04:10:49;7.93;;;7.07;;
11809;SDS011;5962;41.566;23.734;2024-03-17T04:13:17;9.30;;;6.70;;
11809;SDS011;5962;41.566;23.734;2024-03-17T04:15:44;7.33;;;6.53;;
11809;SDS011;5962;41.566;23.734;2024-03-17T04:18:11;8.27;;;7.20;;
11809;SDS011;5962;41.566;23.734;2024-03-17T04:20:39;8.37;;;6.73;;
11809;SDS011;5962;41.566;23.734;2024-03-17T04:23:08;9.97;;;6.30;;
11809;SDS011;5962;41.566;23.734;2024-03-17T04:25:35;7.63;;;6.83;;
11809;SDS011;5962;41.566;23.734;2024-03-17T04:28:03;7.50;;;6.73;;
11809;SDS011;5962;41.566;23.734;2024-03-17T04:30:30;9.93;;;6.73;;
11809;SDS011;5962;41.566;23.734;2024-03-17T04:32:58;8.83;;;6.40;;
11809;SDS011;5962;41.566;23.734;2024-03-17T04:35:24;8.13;;;7.00;;
11809;SDS011;5962;41.566;23.734;2024-03-17T04:37:51;7.67;;;6.97;;
11809;SDS011;5962;41.566;23.734;2024-03-17T04:40:20;8.23;;;7.47;;
11809;SDS011;5962;41.566;23.734;2024-03-17T04:42:47;8.03;;;7.23;;
11809;SDS011;5962;41.566;23.734;2024-03-17T04:45:15;8.27;;;6.93;;
11809;SDS011;5962;41.566;23.734;2024-03-17T04:47:43;11.10;;;7.50;;
11809;SDS011;5962;41.566;23.734;2024-03-17T04:50:10;9.27;;;7.43;;
11809;SDS011;5962;41.566;23.734;2024-03-17T04:52:37;10.90;;;8.03;;
11809;SDS011;5962;41.566;23.734;2024-03-17T04:55:05;8.83;;;7.93;;
11809;SDS011;5962;41.566;23.734;2024-03-17T04:57:33;11.17;;;8.50;;
11809;SDS011;5962;41.566;23.734;2024-03-17T05:00:01;11.80;;;7.27;;
11809;SDS011;5962;41.566;23.734;2024-03-17T05:02:31;9.40;;;7.47;;
11809;SDS011;5962;41.566;23.734;2024-03-17T05:04:58;9.13;;;7.80;;
11809;SDS011;5962;41.566;23.734;2024-03-17T05:07:25;8.10;;;7.27;;
11809;SDS011;5962;41.566;23.734;2024-03-17T05:09:52;8.00;;;7.20;;
11809;SDS011;5962;41.566;23.734;2024-03-17T05:12:19;7.97;;;7.17;;
11809;SDS011;5962;41.566;23.734;2024-03-17T05:14:47;8.30;;;7.43;;
11809;SDS011;5962;41.566;23.734;2024-03-17T05:17:14;9.07;;;7.90;;
11809;SDS011;5962;41.566;23.734;2024-03-17T05:19:41;9.23;;;7.60;;
11809;SDS011;5962;41.566;23.734;2024-03-17T05:22:08;10.33;;;8.60;;
11809;SDS011;5962;41.566;23.734;2024-03-17T05:24:35;9.67;;;8.63;;
11809;SDS011;5962;41.566;23.734;2024-03-17T05:27:03;9.77;;;8.67;;
11809;SDS011;5962;41.566;23.734;2024-03-17T05:29:30;16.13;;;12.40;;
11809;SDS011;5962;41.566;23.734;2024-03-17T05:31:58;13.97;;;10.83;;
11809;SDS011;5962;41.566;23.734;2024-03-17T05:34:27;15.30;;;12.17;;
11809;SDS011;5962;41.566;23.734;2024-03-17T05:36:54;17.40;;;13.60;;
11809;SDS011;5962;41.566;23.734;2024-03-17T05:39:21;15.63;;;12.93;;
11809;SDS011;5962;41.566;23.734;2024-03-17T05:41:48;17.37;;;13.20;;
11809;SDS011;5962;41.566;23.734;2024-03-17T05:44:15;14.77;;;13.00;;
11809;SDS011;5962;41.566;23.734;2024-03-17T05:46:42;16.80;;;13.43;;
11809;SDS011;5962;41.566;23.734;2024-03-17T05:49:11;14.40;;;13.00;;
11809;SDS011;5962;41.566;23.734;2024-03-17T05:51:38;16.43;;;13.30;;
11809;SDS011;5962;41.566;23.734;2024-03-17T05:54:05;15.10;;;13.27;;
11809;SDS011;5962;41.566;23.734;2024-03-17T05:56:32;15.23;;;13.63;;
11809;SDS011;5962;41.566;23.734;2024-03-17T05:59:00;14.27;;;12.77;;
11809;SDS011;5962;41.566;23.734;2024-03-17T06:01:27;17.87;;;13.20;;
11809;SDS011;5962;41.566;23.734;2024-03-17T06:03:55;16.33;;;13.57;;
11809;SDS011;5962;41.566;23.734;2024-03-17T06:06:23;16.80;;;13.33;;
11809;SDS011;5962;41.566;23.734;2024-03-17T06:08:50;16.33;;;13.07;;
11809;SDS011;5962;41.566;23.734;2024-03-17T06:11:17;16.90;;;14.93;;
11809;SDS011;5962;41.566;23.734;2024-03-17T06:13:44;18.00;;;15.07;;
11809;SDS011;5962;41.566;23.734;2024-03-17T06:16:11;14.73;;;13.03;;
11809;SDS011;5962;41.566;23.734;2024-03-17T06:18:38;14.07;;;12.57;;
11809;SDS011;5962;41.566;23.734;2024-03-17T06:21:05;17.17;;;14.27;;
11809;SDS011;5962;41.566;23.734;2024-03-17T06:23:36;18.23;;;14.90;;
11809;SDS011;5962;41.566;23.734;2024-03-17T06:26:03;16.90;;;14.80;;
11809;SDS011;5962;41.566;23.734;2024-03-17T06:28:31;20.73;;;15.40;;
11809;SDS011;5962;41.566;23.734;2024-03-17T06:30:58;17.93;;;15.23;;
11809;SDS011;5962;41.566;23.734;2024-03-17T06:33:26;18.23;;;15.13;;
11809;SDS011;5962;41.566;23.734;2024-03-17T06:35:54;16.47;;;14.67;;
11809;SDS011;5962;41.566;23.734;2024-03-17T06:38:22;17.63;;;14.47;;
11809;SDS011;5962;41.566;23.734;2024-03-17T06:40:50;19.97;;;15.87;;
11809;SDS011;5962;41.566;23.734;2024-03-17T06:43:18;19.60;;;14.50;;
11809;SDS011;5962;41.566;23.734;2024-03-17T06:45:53;18.23;;;15.00;;
11809;SDS011;5962;41.566;23.734;2024-03-17T06:48:21;16.80;;;13.77;;
11809;SDS011;5962;41.566;23.734;2024-03-17T06:50:48;17.30;;;13.83;;
11809;SDS011;5962;41.566;23.734;2024-03-17T06:53:16;16.97;;;13.40;;
11809;SDS011;5962;41.566;23.734;2024-03-17T06:55:44;14.00;;;12.50;;
11809;SDS011;5962;41.566;23.734;2024-03-17T06:58:20;14.40;;;11.10;;
11809;SDS011;5962;41.566;23.734;2024-03-17T07:00:52;12.40;;;11.10;;
11809;SDS011;5962;41.566;23.734;2024-03-17T07:03:20;16.27;;;11.83;;
11809;SDS011;5962;41.566;23.734;2024-03-17T07:05:50;12.57;;;11.27;;
11809;SDS011;5962;41.566;23.734;2024-03-17T07:08:18;13.10;;;11.70;;
11809;SDS011;5962;41.566;23.734;2024-03-17T07:10:54;13.20;;;10.80;;
11809;SDS011;5962;41.566;23.734;2024-03-17T07:13:23;11.47;;;10.27;;
11809;SDS011;5962;41.566;23.734;2024-03-17T07:15:50;11.43;;;10.23;;
11809;SDS011;5962;41.566;23.734;2024-03-17T07:18:17;16.43;;;13.53;;
11809;SDS011;5962;41.566;23.734;2024-03-17T07:20:44;15.13;;;11.70;;
11809;SDS011;5962;41.566;23.734;2024-03-17T07:23:13;11.60;;;10.40;;
11809;SDS011;5962;41.566;23.734;2024-03-17T07:25:40;12.90;;;11.03;;
11809;SDS011;5962;41.566;23.734;2024-03-17T07:28:08;14.23;;;11.37;;
11809;SDS011;5962;41.566;23.734;2024-03-17T07:30:36;10.27;;;9.20;;
11809;SDS011;5962;41.566;23.734;2024-03-17T07:33:03;10.23;;;9.03;;
11809;SDS011;5962;41.566;23.734;2024-03-17T07:35:30;9.33;;;7.83;;
11809;SDS011;5962;41.566;23.734;2024-03-17T07:37:57;9.63;;;8.63;;
11809;SDS011;5962;41.566;23.734;2024-03-17T07:40:24;9.20;;;8.17;;
11809;SDS011;5962;41.566;23.734;2024-03-17T07:42:51;8.30;;;7.50;;
11809;SDS011;5962;41.566;23.734;2024-03-17T07:45:18;9.37;;;8.50;;
11809;SDS011;5962;41.566;23.734;2024-03-17T07:47:50;11.80;;;10.60;;
11809;SDS011;5962;41.566;23.734;2024-03-17T07:50:17;14.47;;;12.97;;
11809;SDS011;5962;41.566;23.734;2024-03-17T07:52:44;10.17;;;9.17;;
11809;SDS011;5962;41.566;23.734;2024-03-17T07:55:11;10.00;;;8.90;;
11809;SDS011;5962;41.566;23.734;2024-03-17T07:57:38;8.83;;;7.93;;
11809;SDS011;5962;41.566;23.734;2024-03-17T08:00:06;8.20;;;7.30;;
11809;SDS011;5962;41.566;23.734;2024-03-17T08:02:41;7.90;;;7.10;;
11809;SDS011;5962;41.566;23.734;2024-03-17T08:05:09;7.63;;;6.77;;
11809;SDS011;5962;41.566;23.734;2024-03-17T08:07:36;7.77;;;7.07;;
11809;SDS011;5962;41.566;23.734;2024-03-17T08:10:04;8.20;;;7.23;;
11809;SDS011;5962;41.566;23.734;2024-03-17T08:12:31;8.27;;;7.47;;
11809;SDS011;5962;41.566;23.734;2024-03-17T08:14:58;8.50;;;7.60;;
11809;SDS011;5962;41.566;23.734;2024-03-17T08:17:25;8.50;;;7.03;;
11809;SDS011;5962;41.566;23.734;2024-03-17T08:19:52;9.27;;;8.27;;
11809;SDS011;5962;41.566;23.734;2024-03-17T08:22:21;10.27;;;8.83;;
11809;SDS011;5962;41.566;23.734;2024-03-17T08:24:48;13.90;;;12.50;;
11809;SDS011;5962;41.566;23.734;2024-03-17T08:27:15;9.53;;;8.53;;
11809;SDS011;5962;41.566;23.734;2024-03-17T08:29:42;9.17;;;8.00;;
11809;SDS011;5962;41.566;23.734;2024-03-17T08:32:09;10.23;;;7.77;;
11809;SDS011;5962;41.566;23.734;2024-03-17T08:34:35;7.97;;;7.27;;
11809;SDS011;5962;41.566;23.734;2024-03-17T08:37:03;7.67;;;6.73;;
11809;SDS011;5962;41.566;23.734;2024-03-17T08:39:31;6.87;;;6.23;;
11809;SDS011;5962;41.566;23.734;2024-03-17T08:41:58;6.63;;;6.00;;
11809;SDS011;5962;41.566;23.734;2024-03-17T08:44:25;8.33;;;6.87;;
11809;SDS011;5962;41.566;23.734;2024-03-17T08:46:52;7.57;;;6.87;;
11809;SDS011;5962;41.566;23.734;2024-03-17T08:49:19;7.47;;;6.63;;
11809;SDS011;5962;41.566;23.734;2024-03-17T08:51:46;12.13;;;6.40;;
11809;SDS011;5962;41.566;23.734;2024-03-17T08:54:13;7.67;;;6.87;;
11809;SDS011;5962;41.566;23.734;2024-03-17T08:56:42;8.23;;;6.70;;
11809;SDS011;5962;41.566;23.734;2024-03-17T08:59:09;8.67;;;6.77;;
11809;SDS011;5962;41.566;23.734;2024-03-17T09:01:37;8.70;;;7.20;;
11809;SDS011;5962;41.566;23.734;2024-03-17T09:04:04;7.43;;;5.90;;
11809;SDS011;5962;41.566;23.734;2024-03-17T09:06:31;7.53;;;5.73;;
11809;SDS011;5962;41.566;23.734;2024-03-17T09:08:58;7.63;;;6.27;;
11809;SDS011;5962;41.566;23.734;2024-03-17T09:11:25;8.30;;;6.17;;
11809;SDS011;5962;41.566;23.734;2024-03-17T09:13:54;8.30;;;5.73;;
11809;SDS011;5962;41.566;23.734;2024-03-17T09:16:21;5.77;;;5.03;;
11809;SDS011;5962;41.566;23.734;2024-03-17T09:18:50;10.90;;;6.30;;
11809;SDS011;5962;41.566;23.734;2024-03-17T09:21:17;6.63;;;5.57;;
11809;SDS011;5962;41.566;23.734;2024-03-17T09:23:44;5.33;;;4.77;;
11809;SDS011;5962;41.566;23.734;2024-03-17T09:26:11;5.57;;;4.63;;
11809;SDS011;5962;41.566;23.734;2024-03-17T09:28:41;6.63;;;5.40;;
11809;SDS011;5962;41.566;23.734;2024-03-17T09:31:10;6.90;;;5.18;;
11809;SDS011;5962;41.566;23.734;2024-03-17T09:33:38;5.90;;;5.30;;
11809;SDS011;5962;41.566;23.734;2024-03-17T09:36:05;6.43;;;5.80;;
11809;SDS011;5962;41.566;23.734;2024-03-17T09:38:34;6.50;;;5.90;;
11809;SDS011;5962;41.566;23.734;2024-03-17T09:41:02;8.53;;;6.57;;
11809;SDS011;5962;41.566;23.734;2024-03-17T09:43:31;5.33;;;4.83;;
11809;SDS011;5962;41.566;23.734;2024-03-17T09:46:01;5.83;;;4.97;;
11809;SDS011;5962;41.566;23.734;2024-03-17T09:48:30;4.93;;;4.43;;
11809;SDS011;5962;41.566;23.734;2024-03-17T09:50:57;5.50;;;4.43;;
11809;SDS011;5962;41.566;23.734;2024-03-17T09:53:26;4.73;;;4.33;;
11809;SDS011;5962;41.566;23.734;2024-03-17T09:55:56;5.60;;;4.40;;
11809;SDS011;5962;41.566;23.734;2024-03-17T09:58:24;4.82;;;4.43;;
11809;SDS011;5962;41.566;23.734;2024-03-17T10:00:51;6.90;;;4.55;;
11809;SDS011;5962;41.566;23.734;2024-03-17T10:06:10;5.90;;;5.40;;
11809;SDS011;5962;41.566;23.734;2024-03-17T10:08:45;5.95;;;5.43;;
11809;SDS011;5962;41.566;23.734;2024-03-17T10:11:14;5.07;;;4.57;;
11809;SDS011;5962;41.566;23.734;2024-03-17T10:13:42;5.18;;;4.68;;
11809;SDS011;5962;41.566;23.734;2024-03-17T10:16:18;4.78;;;4.35;;
11809;SDS011;5962;41.566;23.734;2024-03-17T10:18:49;4.55;;;4.15;;
11809;SDS011;5962;41.566;23.734;2024-03-17T10:21:24;4.80;;;4.30;;
11809;SDS011;5962;41.566;23.734;2024-03-17T10:24:04;7.80;;;5.00;;
11809;SDS011;5962;41.566;23.734;2024-03-17T10:26:35;6.85;;;5.50;;
11809;SDS011;5962;41.566;23.734;2024-03-17T10:29:04;4.95;;;4.45;;
11809;SDS011;5962;41.566;23.734;2024-03-17T10:31:32;15.07;;;13.57;;
11809;SDS011;5962;41.566;23.734;2024-03-17T10:34:06;5.15;;;4.70;;
11809;SDS011;5962;41.566;23.734;2024-03-17T10:36:42;4.78;;;4.38;;
11809;SDS011;5962;41.566;23.734;2024-03-17T10:39:16;4.88;;;4.45;;
11809;SDS011;5962;41.566;23.734;2024-03-17T10:41:55;5.53;;;4.45;;
11809;SDS011;5962;41.566;23.734;2024-03-17T10:44:23;6.18;;;5.00;;
11809;SDS011;5962;41.566;23.734;2024-03-17T10:46:50;5.93;;;4.60;;
11809;SDS011;5962;41.566;23.734;2024-03-17T10:49:22;4.63;;;4.22;;
11809;SDS011;5962;41.566;23.734;2024-03-17T10:51:53;4.32;;;3.80;;
11809;SDS011;5962;41.566;23.734;2024-03-17T10:54:25;4.55;;;4.15;;
11809;SDS011;5962;41.566;23.734;2024-03-17T10:56:54;7.65;;;4.30;;
11809;SDS011;5962;41.566;23.734;2024-03-17T10:59:25;6.25;;;4.30;;
11809;SDS011;5962;41.566;23.734;2024-03-17T11:02:02;4.72;;;4.32;;
11809;SDS011;5962;41.566;23.734;2024-03-17T11:04:31;6.32;;;4.43;;
11809;SDS011;5962;41.566;23.734;2024-03-17T11:06:59;4.90;;;3.80;;
11809;SDS011;5962;41.566;23.734;2024-03-17T11:09:26;4.72;;;4.25;;
11809;SDS011;5962;41.566;23.734;2024-03-17T11:11:53;5.00;;;4.50;;
11809;SDS011;5962;41.566;23.734;2024-03-17T11:14:20;6.20;;;4.15;;
11809;SDS011;5962;41.566;23.734;2024-03-17T11:16:49;5.03;;;4.43;;
11809;SDS011;5962;41.566;23.734;2024-03-17T11:19:16;5.20;;;4.70;;
11809;SDS011;5962;41.566;23.734;2024-03-17T11:21:44;5.15;;;4.30;;
11809;SDS011;5962;41.566;23.734;2024-03-17T11:24:20;5.43;;;4.90;;
11809;SDS011;5962;41.566;23.734;2024-03-17T11:26:48;5.38;;;4.45;;
11809;SDS011;5962;41.566;23.734;2024-03-17T11:29:27;5.18;;;4.13;;
11809;SDS011;5962;41.566;23.734;2024-03-17T11:31:58;6.10;;;3.95;;
11809;SDS011;5962;41.566;23.734;2024-03-17T11:34:28;5.03;;;4.32;;
11809;SDS011;5962;41.566;23.734;2024-03-17T11:36:58;10.73;;;9.73;;
11809;SDS011;5962;41.566;23.734;2024-03-17T11:42:24;12.73;;;11.63;;
11809;SDS011;5962;41.566;23.734;2024-03-17T11:44:55;4.45;;;4.00;;
11809;SDS011;5962;41.566;23.734;2024-03-17T11:47:32;4.65;;;3.63;;
11809;SDS011;5962;41.566;23.734;2024-03-17T11:50:01;5.03;;;4.28;;
11809;SDS011;5962;41.566;23.734;2024-03-17T11:52:30;4.47;;;4.07;;
11809;SDS011;5962;41.566;23.734;2024-03-17T11:54:56;4.20;;;3.80;;
11809;SDS011;5962;41.566;23.734;2024-03-17T11:57:24;3.88;;;3.58;;
11809;SDS011;5962;41.566;23.734;2024-03-17T11:59:52;4.40;;;4.00;;
11809;SDS011;5962;41.566;23.734;2024-03-17T12:02:20;4.47;;;3.80;;
11809;SDS011;5962;41.566;23.734;2024-03-17T12:04:47;6.32;;;4.53;;
11809;SDS011;5962;41.566;23.734;2024-03-17T12:07:15;5.78;;;4.32;;
11809;SDS011;5962;41.566;23.734;2024-03-17T12:09:45;4.45;;;4.03;;
11809;SDS011;5962;41.566;23.734;2024-03-17T12:12:16;5.50;;;4.13;;
11809;SDS011;5962;41.566;23.734;2024-03-17T12:14:43;4.60;;;4.20;;
11809;SDS011;5962;41.566;23.734;2024-03-17T12:17:11;4.70;;;3.53;;
11809;SDS011;5962;41.566;23.734;2024-03-17T12:19:39;3.92;;;3.55;;
11809;SDS011;5962;41.566;23.734;2024-03-17T12:22:07;4.00;;;3.50;;
11809;SDS011;5962;41.566;23.734;2024-03-17T12:24:34;4.63;;;4.20;;
11809;SDS011;5962;41.566;23.734;2024-03-17T12:27:05;5.78;;;4.20;;
11809;SDS011;5962;41.566;23.734;2024-03-17T12:29:32;4.07;;;3.72;;
11809;SDS011;5962;41.566;23.734;2024-03-17T12:32:03;5.28;;;3.40;;
11809;SDS011;5962;41.566;23.734;2024-03-17T12:34:31;3.80;;;3.50;;
11809;SDS011;5962;41.566;23.734;2024-03-17T12:36:59;4.90;;;3.30;;
11809;SDS011;5962;41.566;23.734;2024-03-17T12:39:26;4.32;;;3.92;;
11809;SDS011;5962;41.566;23.734;2024-03-17T12:42:04;3.63;;;3.25;;
11809;SDS011;5962;41.566;23.734;2024-03-17T12:44:33;3.75;;;3.45;;
11809;SDS011;5962;41.566;23.734;2024-03-17T12:47:01;4.05;;;3.20;;
11809;SDS011;5962;41.566;23.734;2024-03-17T12:49:29;3.40;;;3.10;;
11809;SDS011;5962;41.566;23.734;2024-03-17T12:51:56;3.50;;;3.20;;
11809;SDS011;5962;41.566;23.734;2024-03-17T12:54:26;4.70;;;3.47;;
11809;SDS011;5962;41.566;23.734;2024-03-17T12:57:03;4.13;;;3.55;;
11809;SDS011;5962;41.566;23.734;2024-03-17T12:59:50;3.45;;;3.15;;
11809;SDS011;5962;41.566;23.734;2024-03-17T13:02:33;3.50;;;3.20;;
11809;SDS011;5962;41.566;23.734;2024-03-17T13:05:07;4.55;;;3.35;;
11809;SDS011;5962;41.566;23.734;2024-03-17T13:07:41;3.40;;;3.10;;
11809;SDS011;5962;41.566;23.734;2024-03-17T13:10:08;3.92;;;3.40;;
11809;SDS011;5962;41.566;23.734;2024-03-17T13:12:36;4.57;;;3.03;;
11809;SDS011;5962;41.566;23.734;2024-03-17T13:15:05;4.82;;;3.30;;
11809;SDS011;5962;41.566;23.734;2024-03-17T13:17:34;5.35;;;3.33;;
11809;SDS011;5962;41.566;23.734;2024-03-17T13:20:01;4.00;;;3.58;;
11809;SDS011;5962;41.566;23.734;2024-03-17T13:22:29;6.18;;;4.05;;
11809;SDS011;5962;41.566;23.734;2024-03-17T13:24:57;4.00;;;3.60;;
11809;SDS011;5962;41.566;23.734;2024-03-17T13:27:25;3.92;;;3.63;;
11809;SDS011;5962;41.566;23.734;2024-03-17T13:29:52;4.75;;;3.55;;
11809;SDS011;5962;41.566;23.734;2024-03-17T13:32:20;5.18;;;3.40;;
11809;SDS011;5962;41.566;23.734;2024-03-17T13:34:47;3.90;;;3.40;;
11809;SDS011;5962;41.566;23.734;2024-03-17T13:37:15;4.20;;;3.50;;
11809;SDS011;5962;41.566;23.734;2024-03-17T13:39:42;4.30;;;3.65;;
11809;SDS011;5962;41.566;23.734;2024-03-17T13:42:10;6.40;;;4.38;;
11809;SDS011;5962;41.566;23.734;2024-03-17T13:44:37;5.03;;;4.50;;
11809;SDS011;5962;41.566;23.734;2024-03-17T13:47:04;8.02;;;5.30;;
11809;SDS011;5962;41.566;23.734;2024-03-17T13:49:32;9.60;;;4.82;;
11809;SDS011;5962;41.566;23.734;2024-03-17T13:51:59;4.65;;;4.15;;
11809;SDS011;5962;41.566;23.734;2024-03-17T13:54:26;9.00;;;5.40;;
11809;SDS011;5962;41.566;23.734;2024-03-17T13:56:53;5.18;;;4.68;;
11809;SDS011;5962;41.566;23.734;2024-03-17T13:59:23;6.60;;;5.30;;
11809;SDS011;5962;41.566;23.734;2024-03-17T14:01:51;4.65;;;4.15;;
11809;SDS011;5962;41.566;23.734;2024-03-17T14:04:18;4.90;;;3.95;;
11809;SDS011;5962;41.566;23.734;2024-03-17T14:06:47;5.68;;;3.90;;
11809;SDS011;5962;41.566;23.734;2024-03-17T14:09:15;5.10;;;4.60;;
11809;SDS011;5962;41.566;23.734;2024-03-17T14:11:44;4.57;;;3.90;;
11809;SDS011;5962;41.566;23.734;2024-03-17T14:14:11;6.63;;;5.30;;
11809;SDS011;5962;41.566;23.734;2024-03-17T14:16:39;5.90;;;4.03;;
11809;SDS011;5962;41.566;23.734;2024-03-17T14:19:08;4.65;;;3.55;;
11809;SDS011;5962;41.566;23.734;2024-03-17T14:21:35;3.42;;;3.13;;
11809;SDS011;5962;41.566;23.734;2024-03-17T14:24:04;3.85;;;3.03;;
11809;SDS011;5962;41.566;23.734;2024-03-17T14:26:32;3.38;;;3.10;;
11809;SDS011;5962;41.566;23.734;2024-03-17T14:29:00;3.30;;;3.00;;
11809;SDS011;5962;41.566;23.734;2024-03-17T14:31:30;3.58;;;3.10;;
11809;SDS011;5962;41.566;23.734;2024-03-17T14:33:58;4.22;;;3.17;;
11809;SDS011;5962;41.566;23.734;2024-03-17T14:36:25;3.83;;;3.20;;
11809;SDS011;5962;41.566;23.734;2024-03-17T14:38:53;5.18;;;3.22;;
11809;SDS011;5962;41.566;23.734;2024-03-17T14:41:22;5.45;;;3.40;;
11809;SDS011;5962;41.566;23.734;2024-03-17T14:43:49;4.20;;;3.75;;
11809;SDS011;5962;41.566;23.734;2024-03-17T14:46:16;4.18;;;3.38;;
11809;SDS011;5962;41.566;23.734;2024-03-17T14:48:43;6.93;;;3.08;;
11809;SDS011;5962;41.566;23.734;2024-03-17T14:51:10;5.05;;;3.95;;